createdAt,value
2023-05-24T00:02:14.145Z,9.80
2023-05-24T00:04:42.181Z,9.70
2023-05-24T00:07:09.229Z,9.60
2023-05-24T00:09:36.149Z,9.60
2023-05-24T00:12:03.317Z,9.70
2023-05-24T00:14:30.327Z,9.70
2023-05-24T00:16:57.315Z,9.70
2023-05-24T00:19:24.279Z,9.70
2023-05-24T00:21:51.639Z,9.70
2023-05-24T00:24:18.638Z,9.70
2023-05-24T00:26:45.805Z,9.70
2023-05-24T00:29:12.676Z,9.70
2023-05-24T00:31:39.674Z,9.80
2023-05-24T00:34:07.158Z,9.80
2023-05-24T00:36:35.065Z,9.90
2023-05-24T00:39:01.847Z,9.90
2023-05-24T00:41:28.689Z,9.90
2023-05-24T00:43:56.297Z,9.90
2023-05-24T00:46:28.827Z,9.80
2023-05-24T00:48:56.992Z,9.80
2023-05-24T00:51:26.445Z,9.80
2023-05-24T00:53:53.836Z,9.90
2023-05-24T00:56:20.851Z,9.90
2023-05-24T00:58:48.493Z,9.90
2023-05-24T01:01:15.349Z,9.80
2023-05-24T01:03:42.390Z,9.80
2023-05-24T01:06:09.566Z,9.80
2023-05-24T01:08:40.007Z,9.70
2023-05-24T01:11:30.558Z,9.70
2023-05-24T01:14:29.201Z,9.50
2023-05-24T01:17:03.882Z,9.60
2023-05-24T01:19:49.922Z,9.60
2023-05-24T01:22:57.258Z,9.50
2023-05-24T01:25:35.805Z,9.50
2023-05-24T01:28:04.342Z,9.40
2023-05-24T01:30:31.241Z,9.40
2023-05-24T01:32:58.306Z,9.30
2023-05-24T01:35:25.080Z,9.20
2023-05-24T01:37:51.828Z,9.30
2023-05-24T01:40:18.835Z,9.30
2023-05-24T01:42:58.759Z,9.30
2023-05-24T01:46:12.148Z,9.10
2023-05-24T01:49:03.591Z,9.00
2023-05-24T01:51:54.295Z,8.80
2023-05-24T01:54:24.365Z,8.80
2023-05-24T01:56:54.211Z,8.60
2023-05-24T01:59:24.056Z,8.60
2023-05-24T02:01:51.046Z,8.50
2023-05-24T02:04:18.618Z,8.40
2023-05-24T02:06:45.481Z,8.30
2023-05-24T02:09:12.282Z,8.20
2023-05-24T02:11:39.040Z,8.20
2023-05-24T02:14:05.853Z,8.10
2023-05-24T02:16:33.351Z,8.10
2023-05-24T02:19:00.477Z,8.00
2023-05-24T02:21:28.805Z,7.90
2023-05-24T02:23:55.593Z,7.90
2023-05-24T02:26:22.387Z,7.80
2023-05-24T02:28:49.178Z,7.80
2023-05-24T02:31:15.983Z,7.70
2023-05-24T02:33:43.509Z,7.60
2023-05-24T02:36:10.930Z,7.60
2023-05-24T02:38:37.736Z,7.60
2023-05-24T02:41:04.538Z,7.50
2023-05-24T02:43:31.300Z,7.40
2023-05-24T02:45:58.187Z,7.40
2023-05-24T02:48:24.972Z,7.40
2023-05-24T02:50:51.783Z,7.30
2023-05-24T02:53:18.562Z,7.20
2023-05-24T02:55:46.734Z,7.20
2023-05-24T02:58:13.636Z,7.20
2023-05-24T03:00:40.575Z,7.20
2023-05-24T03:03:07.727Z,7.20
2023-05-24T03:05:34.615Z,7.20
2023-05-24T03:08:01.393Z,7.20
2023-05-24T03:10:28.202Z,7.20
2023-05-24T03:12:55.028Z,7.30
2023-05-24T03:15:21.781Z,7.30
2023-05-24T03:17:48.597Z,7.40
2023-05-24T03:20:16.015Z,7.40
2023-05-24T03:22:43.120Z,7.40
2023-05-24T03:25:10.198Z,7.50
2023-05-24T03:27:36.962Z,7.60
2023-05-24T03:30:06.345Z,7.60
2023-05-24T03:32:33.586Z,7.70
2023-05-24T03:35:01.571Z,7.70
2023-05-24T03:37:28.567Z,7.80
2023-05-24T03:39:55.370Z,7.70
2023-05-24T03:42:22.579Z,7.70
2023-05-24T03:44:49.440Z,7.70
2023-05-24T03:47:16.250Z,7.70
2023-05-24T03:49:43.168Z,7.70
2023-05-24T03:52:09.919Z,7.80
2023-05-24T03:54:36.682Z,7.80
2023-05-24T03:57:03.887Z,7.80
2023-05-24T03:59:30.979Z,7.90
2023-05-24T04:01:57.870Z,7.90
2023-05-24T04:04:24.790Z,7.90
2023-05-24T04:06:51.642Z,7.90
2023-05-24T04:09:18.461Z,7.90
2023-05-24T04:11:45.309Z,7.90
2023-05-24T04:14:12.136Z,8.00
2023-05-24T04:16:39.758Z,8.00
2023-05-24T04:19:06.593Z,8.00
2023-05-24T04:21:34.617Z,8.00
2023-05-24T04:24:01.695Z,8.00
2023-05-24T04:26:28.556Z,8.10
2023-05-24T04:28:55.880Z,8.00
2023-05-24T04:31:22.939Z,8.00
2023-05-24T04:33:50.198Z,8.00
2023-05-24T04:36:17.701Z,8.00
2023-05-24T04:38:46.273Z,8.10
2023-05-24T04:41:13.578Z,8.10
2023-05-24T04:43:40.821Z,8.20
2023-05-24T04:46:09.123Z,8.20
2023-05-24T04:48:36.544Z,8.40
2023-05-24T04:51:03.468Z,8.50
2023-05-24T04:53:30.554Z,8.50
2023-05-24T04:55:57.328Z,8.60
2023-05-24T04:58:24.098Z,8.50
2023-05-24T05:00:51.236Z,8.60
2023-05-24T05:03:18.450Z,8.70
2023-05-24T05:05:46.549Z,8.80
2023-05-24T05:08:14.184Z,8.90
2023-05-24T05:10:41.170Z,8.90
2023-05-24T05:13:08.208Z,9.00
2023-05-24T05:15:34.957Z,9.20
2023-05-24T05:18:01.754Z,9.10
2023-05-24T05:20:28.670Z,9.10
2023-05-24T05:22:55.518Z,9.10
2023-05-24T05:25:22.577Z,9.30
2023-05-24T05:27:49.354Z,9.30
2023-05-24T05:30:16.435Z,9.40
2023-05-24T05:32:43.400Z,9.40
2023-05-24T05:35:10.336Z,9.40
2023-05-24T05:37:37.089Z,9.40
2023-05-24T05:40:04.666Z,9.50
2023-05-24T05:42:31.537Z,9.50
2023-05-24T05:44:58.441Z,9.50
2023-05-24T05:47:25.497Z,9.70
2023-05-24T05:49:52.258Z,9.70
2023-05-24T05:52:19.092Z,9.70
2023-05-24T05:54:45.890Z,9.80
2023-05-24T05:57:12.904Z,9.80
2023-05-24T05:59:39.727Z,9.90
2023-05-24T06:02:07.250Z,10.00
2023-05-24T06:04:34.474Z,10.00
2023-05-24T06:07:01.507Z,10.00
2023-05-24T06:09:28.402Z,10.00
2023-05-24T06:11:55.305Z,10.20
2023-05-24T06:14:22.619Z,9.80
2023-05-24T06:16:49.693Z,10.00
2023-05-24T06:19:16.957Z,9.90
2023-05-24T06:21:48.195Z,10.10
2023-05-24T06:24:17.984Z,10.30
2023-05-24T06:26:45.573Z,10.40
2023-05-24T06:29:12.557Z,10.60
2023-05-24T06:31:39.947Z,10.50
2023-05-24T06:34:06.960Z,10.60
2023-05-24T06:36:35.478Z,10.70
2023-05-24T06:39:03.384Z,10.70
2023-05-24T06:41:30.329Z,10.70
2023-05-24T06:43:57.113Z,10.70
2023-05-24T06:46:23.883Z,10.50
2023-05-24T06:48:50.828Z,10.40
2023-05-24T06:51:17.788Z,10.40
2023-05-24T06:53:44.656Z,10.40
2023-05-24T06:56:11.487Z,10.50
2023-05-24T06:58:38.420Z,10.40
2023-05-24T07:01:05.513Z,10.60
2023-05-24T07:03:32.460Z,10.70
2023-05-24T07:05:59.343Z,10.80
2023-05-24T07:08:26.393Z,10.80
2023-05-24T07:10:54.738Z,10.80
2023-05-24T07:13:21.768Z,10.80
2023-05-24T07:15:49.164Z,11.00
2023-05-24T07:18:16.513Z,11.30
2023-05-24T07:20:43.700Z,11.40
2023-05-24T07:23:10.839Z,11.50
2023-05-24T07:25:37.693Z,11.40
2023-05-24T07:28:04.809Z,11.40
2023-05-24T07:30:32.869Z,11.40
2023-05-24T07:33:00.053Z,11.30
2023-05-24T07:35:28.689Z,11.30
2023-05-24T07:37:55.588Z,11.30
2023-05-24T07:40:23.539Z,11.50
2023-05-24T07:42:50.570Z,11.70
2023-05-24T07:45:17.366Z,11.70
2023-05-24T07:47:44.252Z,11.90
2023-05-24T07:50:11.856Z,12.10
2023-05-24T07:52:41.761Z,12.20
2023-05-24T07:55:08.932Z,12.20
2023-05-24T07:57:35.926Z,12.00
2023-05-24T08:00:10.275Z,12.00
2023-05-24T08:02:37.177Z,11.90
2023-05-24T08:05:05.482Z,11.90
2023-05-24T08:07:32.211Z,11.70
2023-05-24T08:09:59.082Z,11.70
2023-05-24T08:12:26.173Z,11.90
2023-05-24T08:14:53.124Z,12.20
2023-05-24T08:17:20.014Z,12.20
2023-05-24T08:19:46.760Z,12.20
2023-05-24T08:22:13.709Z,12.10
2023-05-24T08:24:40.754Z,12.20
2023-05-24T08:27:08.636Z,12.30
2023-05-24T08:29:37.224Z,12.30
2023-05-24T08:32:04.420Z,12.40
2023-05-24T08:34:31.519Z,12.50
2023-05-24T08:36:58.514Z,12.50
2023-05-24T08:39:25.297Z,12.90
2023-05-24T08:42:07.946Z,13.00
2023-05-24T08:44:42.056Z,12.90
2023-05-24T08:47:09.919Z,12.60
2023-05-24T08:49:38.031Z,12.50
2023-05-24T08:52:07.589Z,12.60
2023-05-24T08:54:37.830Z,12.50
2023-05-24T08:57:05.583Z,12.40
2023-05-24T08:59:32.409Z,12.70
2023-05-24T09:02:01.446Z,12.70
2023-05-24T09:04:29.164Z,13.00
2023-05-24T09:06:57.810Z,13.20
2023-05-24T09:09:27.810Z,13.70
2023-05-24T09:11:59.273Z,13.60
2023-05-24T09:14:26.221Z,13.50
2023-05-24T09:16:53.660Z,13.40
2023-05-24T09:19:20.788Z,13.00
2023-05-24T09:21:49.830Z,13.30
2023-05-24T09:24:16.833Z,13.50
2023-05-24T09:26:43.585Z,13.50
2023-05-24T09:29:10.339Z,13.30
2023-05-24T09:31:39.458Z,13.30
2023-05-24T09:34:11.638Z,13.30
2023-05-24T09:36:42.835Z,13.00
2023-05-24T09:39:10.617Z,13.00
2023-05-24T09:41:38.140Z,12.90
2023-05-24T09:44:06.044Z,13.00
2023-05-24T09:46:38.306Z,12.80
2023-05-24T09:49:07.884Z,12.70
2023-05-24T09:51:38.388Z,12.60
2023-05-24T09:54:05.947Z,12.60
2023-05-24T09:56:35.921Z,12.40
2023-05-24T09:59:08.341Z,12.50
2023-05-24T10:01:35.907Z,12.40
2023-05-24T10:04:04.770Z,12.40
2023-05-24T10:06:37.306Z,12.60
2023-05-24T10:09:09.411Z,12.60
2023-05-24T10:11:37.328Z,12.60
2023-05-24T10:14:10.224Z,12.60
2023-05-24T10:16:39.781Z,12.70
2023-05-24T10:19:07.311Z,12.70
2023-05-24T10:21:40.141Z,12.90
2023-05-24T10:24:11.149Z,13.00
2023-05-24T10:26:39.408Z,12.90
2023-05-24T10:29:10.727Z,12.80
2023-05-24T10:31:40.574Z,12.60
2023-05-24T10:34:09.119Z,12.70
2023-05-24T10:36:37.058Z,12.70
2023-05-24T10:39:04.328Z,12.90
2023-05-24T10:41:40.393Z,12.90
2023-05-24T10:44:14.126Z,13.00
2023-05-24T10:47:04.122Z,12.80
2023-05-24T10:49:31.409Z,12.60
2023-05-24T10:52:03.105Z,12.40
2023-05-24T10:54:29.896Z,12.70
2023-05-24T10:57:04.661Z,12.80
2023-05-24T10:59:37.274Z,12.90
2023-05-24T11:02:09.635Z,12.80
2023-05-24T11:04:43.431Z,12.80
2023-05-24T11:07:11.662Z,12.90
2023-05-24T11:09:52.880Z,12.90
2023-05-24T11:12:20.857Z,13.00
2023-05-24T11:14:53.841Z,13.00
2023-05-24T11:17:23.112Z,12.80
2023-05-24T11:19:54.803Z,12.80
2023-05-24T11:22:25.185Z,12.80
2023-05-24T11:24:53.326Z,12.60
2023-05-24T11:27:20.546Z,12.50
2023-05-24T11:29:48.364Z,12.30
2023-05-24T11:32:20.600Z,12.20
2023-05-24T11:34:48.649Z,12.10
2023-05-24T11:37:17.559Z,12.00
2023-05-24T11:39:51.003Z,12.20
2023-05-24T11:42:17.944Z,12.40
2023-05-24T11:44:44.884Z,12.50
2023-05-24T11:47:13.583Z,12.50
2023-05-24T11:49:41.075Z,12.30
2023-05-24T11:52:08.656Z,12.20
2023-05-24T11:54:37.313Z,12.30
2023-05-24T11:57:05.548Z,12.40
2023-05-24T11:59:32.655Z,12.40
2023-05-24T12:02:06.667Z,12.40
2023-05-24T12:04:34.783Z,12.50
2023-05-24T12:07:03.027Z,12.60
2023-05-24T12:09:30.143Z,12.60
2023-05-24T12:11:58.428Z,12.60
2023-05-24T12:14:34.607Z,12.50
2023-05-24T12:17:01.893Z,12.40
2023-05-24T12:19:36.417Z,12.50
2023-05-24T12:22:08.140Z,12.50
2023-05-24T12:24:35.465Z,12.40
2023-05-24T12:27:10.064Z,12.20
2023-05-24T12:29:42.456Z,12.20
2023-05-24T12:32:13.602Z,12.30
2023-05-24T12:34:42.749Z,12.50
2023-05-24T12:37:11.049Z,12.60
2023-05-24T12:39:38.838Z,12.50
2023-05-24T12:42:06.155Z,12.50
2023-05-24T12:44:35.924Z,12.50
2023-05-24T12:47:05.196Z,12.60
2023-05-24T12:49:32.936Z,12.70
2023-05-24T12:51:59.888Z,13.00
2023-05-24T12:54:28.053Z,13.10
2023-05-24T12:56:57.062Z,13.00
2023-05-24T12:59:26.223Z,13.30
2023-05-24T13:01:53.535Z,13.40
2023-05-24T13:04:23.053Z,13.70
2023-05-24T13:06:49.969Z,13.80
2023-05-24T13:09:22.416Z,13.90
2023-05-24T13:11:49.529Z,14.80
2023-05-24T13:14:16.960Z,15.60
2023-05-24T13:16:44.482Z,15.20
2023-05-24T13:19:12.349Z,14.90
2023-05-24T13:21:39.697Z,14.40
2023-05-24T13:24:07.636Z,15.50
2023-05-24T13:26:38.272Z,15.80
2023-05-24T13:31:37.881Z,16.10
2023-05-24T13:34:05.500Z,15.80
2023-05-24T13:36:33.087Z,15.60
2023-05-24T13:39:13.527Z,16.00
2023-05-24T13:41:42.302Z,16.90
2023-05-24T13:44:10.147Z,17.10
2023-05-24T13:46:37.552Z,16.60
2023-05-24T13:49:05.072Z,16.90
2023-05-24T13:51:32.952Z,17.70
2023-05-24T13:54:00.009Z,17.20
2023-05-24T13:56:32.514Z,17.30
2023-05-24T13:59:03.647Z,17.60
2023-05-24T14:01:31.336Z,17.40
2023-05-24T14:04:00.258Z,17.10
2023-05-24T14:06:27.112Z,16.70
2023-05-24T14:08:54.137Z,17.60
2023-05-24T14:11:22.362Z,17.70
2023-05-24T14:16:19.596Z,17.80
2023-05-24T14:18:49.137Z,17.90
2023-05-24T14:21:18.550Z,17.80
2023-05-24T14:23:45.514Z,17.70
2023-05-24T14:26:12.410Z,18.10
2023-05-24T14:28:39.203Z,18.00
2023-05-24T14:31:06.403Z,17.60
2023-05-24T14:33:33.266Z,17.80
2023-05-24T14:36:00.041Z,17.50
2023-05-24T14:38:26.841Z,17.50
2023-05-24T14:40:53.922Z,17.30
2023-05-24T14:43:20.822Z,17.10
2023-05-24T14:45:47.881Z,16.80
2023-05-24T14:48:16.660Z,16.90
2023-05-24T14:50:43.481Z,17.10
2023-05-24T14:53:12.417Z,16.70
2023-05-24T14:55:41.674Z,17.00
2023-05-24T14:58:09.477Z,16.90
2023-05-24T15:00:36.836Z,17.20
2023-05-24T15:03:06.085Z,17.20
2023-05-24T15:05:33.213Z,17.10
2023-05-24T15:08:00.211Z,17.20
2023-05-24T15:10:27.043Z,17.40
2023-05-24T15:12:53.969Z,17.20
2023-05-24T15:15:22.531Z,16.90
2023-05-24T15:17:49.535Z,17.10
2023-05-24T15:20:16.539Z,16.90
2023-05-24T15:22:43.570Z,16.90
2023-05-24T15:25:11.484Z,16.50
2023-05-24T15:27:38.799Z,16.70
2023-05-24T15:30:06.348Z,16.70
2023-05-24T15:32:33.159Z,16.40
2023-05-24T15:35:02.876Z,16.40
2023-05-24T15:37:29.637Z,16.40
2023-05-24T15:39:56.490Z,16.00
2023-05-24T15:42:25.066Z,16.10
2023-05-24T15:44:51.910Z,16.30
2023-05-24T15:47:22.023Z,16.40
2023-05-24T15:49:49.868Z,16.00
2023-05-24T15:52:16.915Z,16.10
2023-05-24T15:54:43.869Z,15.70
2023-05-24T15:57:10.972Z,15.80
2023-05-24T15:59:38.754Z,15.80
2023-05-24T16:02:09.289Z,15.60
2023-05-24T16:04:36.275Z,15.50
2023-05-24T16:07:03.254Z,15.50
2023-05-24T16:09:30.150Z,15.50
2023-05-24T16:11:56.991Z,15.30
2023-05-24T16:14:23.836Z,15.20
2023-05-24T16:16:50.607Z,15.20
2023-05-24T16:19:17.677Z,15.00
2023-05-24T16:21:44.505Z,14.80
2023-05-24T16:24:11.276Z,14.70
2023-05-24T16:26:38.103Z,14.60
2023-05-24T16:29:06.983Z,14.60
2023-05-24T16:31:33.881Z,14.50
2023-05-24T16:34:01.280Z,14.40
2023-05-24T16:36:28.204Z,14.40
2023-05-24T16:38:54.946Z,14.30
2023-05-24T16:41:21.877Z,14.20
2023-05-24T16:43:48.732Z,14.20
2023-05-24T16:46:15.644Z,14.20
2023-05-24T16:48:42.599Z,14.10
2023-05-24T16:51:09.369Z,14.00
2023-05-24T16:53:36.213Z,14.00
2023-05-24T16:56:03.041Z,13.90
2023-05-24T16:58:30.985Z,13.80
2023-05-24T17:00:58.558Z,13.70
2023-05-24T17:03:29.761Z,13.70
2023-05-24T17:06:01.997Z,13.70
2023-05-24T17:08:34.095Z,13.60
2023-05-24T17:11:01.036Z,13.60
2023-05-24T17:13:29.348Z,13.60
2023-05-24T17:15:57.145Z,13.60
2023-05-24T17:18:28.330Z,13.50
2023-05-24T17:21:05.792Z,13.60
2023-05-24T17:23:34.199Z,13.50
2023-05-24T17:26:02.812Z,13.40
2023-05-24T17:28:30.201Z,13.50
2023-05-24T17:30:58.644Z,13.40
2023-05-24T17:33:27.142Z,13.30
2023-05-24T17:35:57.578Z,13.40
2023-05-24T17:38:25.319Z,13.30
2023-05-24T17:40:59.697Z,13.30
2023-05-24T17:43:32.683Z,13.30
2023-05-24T17:46:06.565Z,13.20
2023-05-24T17:48:38.464Z,13.20
2023-05-24T17:51:08.070Z,13.20
2023-05-24T17:53:37.987Z,13.30
2023-05-24T17:56:05.691Z,13.20
2023-05-24T17:58:36.039Z,13.10
2023-05-24T18:01:05.335Z,13.10
2023-05-24T18:03:33.543Z,13.10
2023-05-24T18:06:01.174Z,13.10
2023-05-24T18:08:28.074Z,13.00
2023-05-24T18:10:54.902Z,13.00
2023-05-24T18:13:21.758Z,13.00
2023-05-24T18:15:49.647Z,12.90
2023-05-24T18:18:16.864Z,12.80
2023-05-24T18:20:44.112Z,12.80
2023-05-24T18:23:11.044Z,12.80
2023-05-24T18:25:37.916Z,12.70
2023-05-24T18:28:04.749Z,12.50
2023-05-24T18:30:31.553Z,12.30
2023-05-24T18:33:07.060Z,12.20
2023-05-24T18:35:34.833Z,12.10
2023-05-24T18:38:01.781Z,12.00
2023-05-24T18:40:28.599Z,11.90
2023-05-24T18:42:55.406Z,11.80
2023-05-24T18:45:22.934Z,11.70
2023-05-24T18:47:49.756Z,11.50
2023-05-24T18:50:17.112Z,11.50
2023-05-24T18:52:43.920Z,11.50
2023-05-24T18:55:10.950Z,11.30
2023-05-24T18:57:38.073Z,11.30
2023-05-24T19:00:06.916Z,11.20
2023-05-24T19:02:39.038Z,11.10
2023-05-24T19:05:09.971Z,11.10
2023-05-24T19:07:37.136Z,11.00
2023-05-24T19:10:04.486Z,10.90
2023-05-24T19:12:31.387Z,10.80
2023-05-24T19:14:58.477Z,10.70
2023-05-24T19:17:25.704Z,10.70
2023-05-24T19:19:52.619Z,10.70
2023-05-24T19:22:19.698Z,10.50
2023-05-24T19:24:46.831Z,10.40
2023-05-24T19:27:13.650Z,10.40
2023-05-24T19:29:40.766Z,10.40
2023-05-24T19:32:08.298Z,10.30
2023-05-24T19:34:37.218Z,10.20
2023-05-24T19:37:04.357Z,10.20
2023-05-24T19:39:31.230Z,10.10
2023-05-24T19:41:58.089Z,10.20
2023-05-24T19:44:24.906Z,10.10
2023-05-24T19:46:51.691Z,10.00
2023-05-24T19:49:18.466Z,10.00
2023-05-24T19:51:45.276Z,9.90
2023-05-24T19:54:12.902Z,9.80
2023-05-24T19:56:39.682Z,9.70
2023-05-24T19:59:07.301Z,9.60
2023-05-24T20:01:34.248Z,9.60
2023-05-24T20:04:01.158Z,9.50
2023-05-24T20:06:28.278Z,9.40
2023-05-24T20:08:57.809Z,9.40
2023-05-24T20:11:24.690Z,9.30
2023-05-24T20:13:52.677Z,9.30
2023-05-24T20:16:19.879Z,9.20
2023-05-24T20:18:46.735Z,9.20
2023-05-24T20:21:15.149Z,9.20
2023-05-24T20:23:41.948Z,9.20
2023-05-24T20:26:08.678Z,9.10
2023-05-24T20:28:35.466Z,9.00
2023-05-24T20:31:02.286Z,8.90
2023-05-24T20:33:29.064Z,8.80
2023-05-24T20:35:55.942Z,8.80
2023-05-24T20:38:23.635Z,8.70
2023-05-24T20:40:50.434Z,8.60
2023-05-24T20:43:17.257Z,8.50
2023-05-24T20:45:44.449Z,8.60
2023-05-24T20:48:11.664Z,8.70
2023-05-24T20:50:38.611Z,8.80
2023-05-24T20:53:05.465Z,8.80
2023-05-24T20:55:32.321Z,8.90
2023-05-24T20:57:59.155Z,8.90
2023-05-24T21:00:26.045Z,9.00
2023-05-24T21:02:52.945Z,9.10
2023-05-24T21:05:20.012Z,9.20
2023-05-24T21:07:46.865Z,9.20
2023-05-24T21:10:18.644Z,9.30
2023-05-24T21:12:48.010Z,9.30
2023-05-24T21:15:14.975Z,9.40
2023-05-24T21:17:41.854Z,9.40
2023-05-24T21:20:09.152Z,9.50
2023-05-24T21:22:35.975Z,9.40
2023-05-24T21:25:02.867Z,9.50
2023-05-24T21:27:29.726Z,9.40
2023-05-24T21:29:56.594Z,9.40
2023-05-24T21:32:23.586Z,9.40
2023-05-24T21:34:50.350Z,9.40
2023-05-24T21:37:17.575Z,9.40
2023-05-24T21:39:44.677Z,9.40
2023-05-24T21:42:11.531Z,9.50
2023-05-24T21:44:38.338Z,9.50
2023-05-24T21:47:05.523Z,9.50
2023-05-24T21:49:32.431Z,9.50
2023-05-24T21:51:59.218Z,9.60
2023-05-24T21:54:26.209Z,9.60
2023-05-24T21:56:53.054Z,9.70
2023-05-24T21:59:21.385Z,9.70
2023-05-24T22:01:48.767Z,9.70
2023-05-24T22:04:15.761Z,9.70
2023-05-24T22:06:44.822Z,9.70
2023-05-24T22:09:12.044Z,9.70
2023-05-24T22:11:40.904Z,9.70
2023-05-24T22:14:07.852Z,9.70
2023-05-24T22:16:34.659Z,9.70
2023-05-24T22:19:03.179Z,9.70
2023-05-24T22:21:33.473Z,9.70
2023-05-24T22:24:00.708Z,9.60
2023-05-24T22:26:27.957Z,9.60
2023-05-24T22:28:56.657Z,9.50
2023-05-24T22:31:25.438Z,9.50
2023-05-24T22:33:52.261Z,9.50
2023-05-24T22:36:19.049Z,9.40
2023-05-24T22:38:46.410Z,9.40
2023-05-24T22:41:13.273Z,9.30
2023-05-24T22:43:40.092Z,9.30
2023-05-24T22:46:09.189Z,9.20
2023-05-24T22:48:37.676Z,9.20
2023-05-24T22:51:04.562Z,9.10
2023-05-24T22:53:32.160Z,9.10
2023-05-24T22:55:58.952Z,9.10
2023-05-24T22:58:25.864Z,9.10
2023-05-24T23:00:53.569Z,9.10
2023-05-24T23:03:21.935Z,9.10
2023-05-24T23:05:48.918Z,9.10
2023-05-24T23:08:17.529Z,9.10
2023-05-24T23:10:46.861Z,9.10
2023-05-24T23:13:15.123Z,9.00
2023-05-24T23:15:42.359Z,9.00
2023-05-24T23:18:10.182Z,8.90
2023-05-24T23:20:42.100Z,8.90
2023-05-24T23:23:08.879Z,8.90
2023-05-24T23:25:35.668Z,8.90
2023-05-24T23:28:02.452Z,8.90
2023-05-24T23:30:29.254Z,9.00
2023-05-24T23:32:56.376Z,8.90
2023-05-24T23:35:23.148Z,8.90
2023-05-24T23:37:49.977Z,8.90
2023-05-24T23:40:16.983Z,8.90
2023-05-24T23:42:43.787Z,8.90
2023-05-24T23:45:11.018Z,8.90
2023-05-24T23:47:37.853Z,8.80
2023-05-24T23:50:04.984Z,8.70
2023-05-24T23:52:31.842Z,8.70
2023-05-24T23:54:58.569Z,8.70
2023-05-24T23:57:25.791Z,8.70
2023-05-24T23:59:53.240Z,8.70
